createdAt,value
2023-02-15T00:01:51.136Z,26.53
2023-02-15T00:04:22.791Z,28.20
2023-02-15T00:06:51.214Z,34.47
2023-02-15T00:09:18.952Z,23.97
2023-02-15T00:11:51.278Z,26.07
2023-02-15T00:14:20.965Z,24.20
2023-02-15T00:16:49.911Z,27.23
2023-02-15T00:19:20.844Z,23.63
2023-02-15T00:21:49.524Z,23.10
2023-02-15T00:24:19.637Z,22.40
2023-02-15T00:26:51.076Z,18.90
2023-02-15T00:29:20.762Z,22.73
2023-02-15T00:31:49.456Z,20.40
2023-02-15T00:34:20.697Z,19.50
2023-02-15T00:36:48.840Z,19.67
2023-02-15T00:39:17.690Z,19.27
2023-02-15T00:41:46.301Z,18.97
2023-02-15T00:44:14.607Z,19.60
2023-02-15T00:46:42.296Z,18.47
2023-02-15T00:49:10.553Z,17.10
2023-02-15T00:51:40.323Z,18.73
2023-02-15T00:54:08.320Z,15.23
2023-02-15T00:56:36.015Z,18.73
2023-02-15T00:59:04.119Z,16.37
2023-02-15T01:01:32.023Z,18.27
2023-02-15T01:03:59.811Z,16.97
2023-02-15T01:06:27.534Z,17.37
2023-02-15T01:08:56.544Z,17.47
2023-02-15T01:11:25.038Z,15.60
2023-02-15T01:13:54.453Z,20.27
2023-02-15T01:16:23.893Z,18.27
2023-02-15T01:18:51.851Z,15.47
2023-02-15T01:21:21.847Z,17.30
2023-02-15T01:23:50.132Z,18.97
2023-02-15T01:26:19.559Z,20.60
2023-02-15T01:28:47.929Z,15.97
2023-02-15T01:31:19.821Z,16.80
2023-02-15T01:33:48.627Z,19.47
2023-02-15T01:36:18.245Z,20.60
2023-02-15T01:38:46.225Z,20.23
2023-02-15T01:41:24.656Z,19.40
2023-02-15T01:43:55.564Z,17.73
2023-02-15T01:46:28.662Z,18.30
2023-02-15T01:49:02.008Z,19.07
2023-02-15T01:51:32.763Z,15.20
2023-02-15T01:54:04.858Z,20.07
2023-02-15T01:56:36.900Z,16.80
2023-02-15T01:59:11.090Z,16.33
2023-02-15T02:01:40.160Z,16.70
2023-02-15T02:04:15.354Z,15.10
2023-02-15T02:06:43.701Z,16.73
2023-02-15T02:09:11.941Z,18.37
2023-02-15T02:11:42.287Z,18.47
2023-02-15T02:14:11.373Z,17.17
2023-02-15T02:16:49.779Z,17.97
2023-02-15T02:19:47.615Z,15.83
2023-02-15T02:23:04.912Z,22.10
2023-02-15T02:26:20.484Z,13.90
2023-02-15T02:29:22.270Z,13.70
2023-02-15T02:32:19.939Z,13.50
2023-02-15T02:34:56.386Z,13.80
2023-02-15T02:37:30.075Z,17.30
2023-02-15T02:40:05.426Z,16.27
2023-02-15T02:42:41.019Z,25.93
2023-02-15T02:45:10.787Z,18.73
2023-02-15T02:47:43.777Z,15.17
2023-02-15T02:50:16.731Z,21.15
2023-02-15T02:52:46.019Z,18.13
2023-02-15T02:55:18.432Z,15.00
2023-02-15T02:57:53.223Z,14.47
2023-02-15T03:00:22.840Z,11.80
2023-02-15T03:02:55.505Z,11.23
2023-02-15T03:05:29.199Z,12.50
2023-02-15T03:07:58.833Z,12.37
2023-02-15T03:10:27.053Z,10.60
2023-02-15T03:12:55.516Z,11.73
2023-02-15T03:15:48.689Z,13.33
2023-02-15T03:18:19.440Z,13.13
2023-02-15T03:20:49.880Z,12.23
2023-02-15T03:23:22.300Z,11.40
2023-02-15T03:25:54.163Z,17.50
2023-02-15T03:28:27.406Z,14.60
2023-02-15T03:30:59.723Z,10.53
2023-02-15T03:33:29.781Z,14.50
2023-02-15T03:36:06.598Z,11.10
2023-02-15T03:38:41.070Z,14.20
2023-02-15T03:41:12.625Z,10.33
2023-02-15T03:43:47.393Z,13.30
2023-02-15T03:46:22.042Z,13.03
2023-02-15T03:48:54.081Z,11.37
2023-02-15T03:51:37.318Z,12.00
2023-02-15T03:54:08.765Z,11.43
2023-02-15T03:56:38.003Z,10.20
2023-02-15T03:59:23.751Z,9.73
2023-02-15T04:02:01.698Z,10.40
2023-02-15T04:04:36.593Z,13.77
2023-02-15T04:07:07.970Z,12.53
2023-02-15T04:10:04.612Z,10.00
2023-02-15T04:12:33.097Z,9.47
2023-02-15T04:15:18.441Z,10.47
2023-02-15T04:17:46.188Z,11.10
2023-02-15T04:20:31.555Z,12.50
2023-02-15T04:23:18.354Z,13.30
2023-02-15T04:25:46.270Z,19.03
2023-02-15T04:28:13.958Z,13.07
2023-02-15T04:30:41.648Z,14.83
2023-02-15T04:33:09.382Z,12.60
2023-02-15T04:35:37.081Z,12.00
2023-02-15T04:38:06.149Z,12.77
2023-02-15T04:40:33.918Z,9.77
2023-02-15T04:43:01.629Z,11.53
2023-02-15T04:45:29.399Z,9.77
2023-02-15T04:47:57.240Z,11.73
2023-02-15T04:50:24.959Z,10.07
2023-02-15T04:52:52.720Z,7.90
2023-02-15T04:55:21.771Z,9.20
2023-02-15T04:57:49.506Z,9.50
2023-02-15T05:00:17.744Z,9.70
2023-02-15T05:02:45.714Z,9.10
2023-02-15T05:05:16.009Z,10.67
2023-02-15T05:07:43.779Z,9.05
2023-02-15T05:10:11.684Z,12.23
2023-02-15T05:12:40.973Z,9.37
2023-02-15T05:15:09.422Z,11.30
2023-02-15T05:17:38.518Z,9.97
2023-02-15T05:20:07.758Z,9.93
2023-02-15T05:22:35.465Z,9.07
2023-02-15T05:25:21.038Z,9.37
2023-02-15T05:28:07.774Z,9.17
2023-02-15T05:30:35.739Z,9.33
2023-02-15T05:33:03.622Z,9.87
2023-02-15T05:35:31.338Z,8.30
2023-02-15T05:37:59.056Z,8.80
2023-02-15T05:40:26.775Z,10.00
2023-02-15T05:42:55.830Z,10.07
2023-02-15T05:45:23.571Z,9.20
2023-02-15T05:47:51.329Z,8.80
2023-02-15T05:50:19.517Z,8.60
2023-02-15T05:52:47.279Z,7.47
2023-02-15T05:55:14.970Z,8.87
2023-02-15T05:57:42.715Z,9.33
2023-02-15T06:00:14.758Z,11.10
2023-02-15T06:02:42.976Z,7.63
2023-02-15T06:05:10.914Z,9.20
2023-02-15T06:07:38.647Z,7.70
2023-02-15T06:10:07.744Z,9.67
2023-02-15T06:12:35.476Z,12.30
2023-02-15T06:15:03.235Z,8.33
2023-02-15T06:17:32.464Z,9.53
2023-02-15T06:20:00.171Z,11.13
2023-02-15T06:22:27.971Z,9.43
2023-02-15T06:24:55.693Z,10.33
2023-02-15T06:27:23.410Z,7.10
2023-02-15T06:29:51.135Z,9.97
2023-02-15T06:32:18.865Z,9.60
2023-02-15T06:34:48.856Z,8.30
2023-02-15T06:37:16.660Z,10.47
2023-02-15T06:39:45.110Z,9.20
2023-02-15T06:42:12.875Z,7.40
2023-02-15T06:44:40.579Z,9.23
2023-02-15T06:47:08.402Z,8.87
2023-02-15T06:49:36.145Z,8.30
2023-02-15T06:52:06.086Z,7.70
2023-02-15T06:54:33.858Z,11.53
2023-02-15T06:57:01.590Z,7.90
2023-02-15T06:59:29.316Z,7.80
2023-02-15T07:01:57.072Z,10.27
2023-02-15T07:04:24.843Z,8.20
2023-02-15T07:06:54.017Z,9.80
2023-02-15T07:09:23.524Z,7.20
2023-02-15T07:12:09.066Z,7.90
2023-02-15T07:14:36.779Z,8.70
2023-02-15T07:17:05.265Z,8.50
2023-02-15T07:19:33.040Z,8.30
2023-02-15T07:22:00.777Z,10.27
2023-02-15T07:24:29.891Z,8.47
2023-02-15T07:26:58.399Z,9.60
2023-02-15T07:29:26.197Z,10.47
2023-02-15T07:31:53.999Z,8.50
2023-02-15T07:34:21.891Z,9.07
2023-02-15T07:36:52.130Z,8.30
2023-02-15T07:39:19.888Z,9.27
2023-02-15T07:41:49.090Z,8.40
2023-02-15T07:44:17.191Z,11.57
2023-02-15T07:46:44.964Z,10.83
2023-02-15T07:49:12.722Z,9.03
2023-02-15T07:51:41.728Z,9.73
2023-02-15T07:54:09.490Z,9.23
2023-02-15T07:56:37.280Z,9.07
2023-02-15T07:59:06.357Z,9.70
2023-02-15T08:01:36.545Z,9.20
2023-02-15T08:04:05.023Z,8.10
2023-02-15T08:06:35.604Z,9.80
2023-02-15T08:09:05.515Z,10.33
2023-02-15T08:11:37.375Z,9.27
2023-02-15T08:14:09.163Z,9.67
2023-02-15T08:16:39.696Z,11.10
2023-02-15T08:19:09.612Z,13.20
2023-02-15T08:21:40.244Z,9.60
2023-02-15T08:24:10.106Z,10.40
2023-02-15T08:26:41.896Z,10.90
2023-02-15T08:29:11.991Z,10.00
2023-02-15T08:31:41.996Z,10.77
2023-02-15T08:34:11.450Z,11.57
2023-02-15T08:36:39.790Z,10.63
2023-02-15T08:39:08.831Z,11.60
2023-02-15T08:41:39.315Z,9.87
2023-02-15T08:44:08.769Z,9.57
2023-02-15T08:46:39.670Z,10.03
2023-02-15T08:49:08.180Z,10.10
2023-02-15T08:51:37.581Z,10.00
2023-02-15T08:54:07.287Z,12.70
2023-02-15T08:56:37.146Z,11.37
2023-02-15T08:59:06.439Z,10.80
2023-02-15T09:01:37.063Z,11.27
2023-02-15T09:04:09.570Z,14.00
2023-02-15T09:06:38.030Z,14.53
2023-02-15T09:09:06.462Z,20.53
2023-02-15T09:11:37.016Z,12.00
2023-02-15T09:14:08.269Z,11.57
2023-02-15T09:16:40.164Z,11.37
2023-02-15T09:19:08.740Z,13.27
2023-02-15T09:21:38.729Z,13.50
2023-02-15T09:24:08.558Z,15.33
2023-02-15T09:26:39.072Z,16.33
2023-02-15T09:29:06.818Z,13.13
2023-02-15T09:31:36.207Z,12.37
2023-02-15T09:34:05.625Z,11.97
2023-02-15T09:36:34.979Z,14.10
2023-02-15T09:39:08.605Z,24.10
2023-02-15T09:41:52.682Z,16.17
2023-02-15T09:44:31.576Z,18.17
2023-02-15T09:47:18.828Z,19.27
2023-02-15T09:49:52.946Z,14.97
2023-02-15T09:52:36.703Z,22.20
2023-02-15T09:55:19.966Z,18.67
2023-02-15T09:57:55.616Z,16.47
2023-02-15T10:00:31.850Z,18.27
2023-02-15T10:03:13.414Z,15.97
2023-02-15T10:05:55.464Z,16.10
2023-02-15T10:09:08.120Z,15.70
2023-02-15T10:11:50.922Z,17.90
2023-02-15T10:14:58.051Z,15.03
2023-02-15T10:17:37.682Z,12.03
2023-02-15T10:20:19.981Z,14.67
2023-02-15T10:23:04.197Z,13.33
2023-02-15T10:25:41.473Z,14.47
2023-02-15T10:28:17.538Z,16.83
2023-02-15T10:30:49.795Z,15.40
2023-02-15T10:33:36.766Z,12.53
2023-02-15T10:36:18.991Z,11.00
2023-02-15T10:38:51.825Z,10.80
2023-02-15T10:41:31.110Z,11.50
2023-02-15T10:44:15.601Z,11.40
2023-02-15T10:47:02.229Z,10.43
2023-02-15T10:49:51.056Z,10.17
2023-02-15T10:52:31.439Z,10.33
2023-02-15T10:55:10.185Z,11.90
2023-02-15T10:57:50.105Z,9.37
2023-02-15T11:00:25.047Z,10.20
2023-02-15T11:03:11.422Z,12.23
2023-02-15T11:05:49.997Z,11.40
2023-02-15T11:08:19.599Z,10.57
2023-02-15T11:10:53.437Z,11.07
2023-02-15T11:13:25.894Z,9.83
2023-02-15T11:15:58.914Z,10.30
2023-02-15T11:18:34.065Z,11.30
2023-02-15T11:21:04.980Z,10.80
2023-02-15T11:23:37.225Z,12.43
2023-02-15T11:26:12.520Z,12.27
2023-02-15T11:28:45.095Z,11.27
2023-02-15T11:31:17.931Z,10.33
2023-02-15T11:33:50.060Z,8.80
2023-02-15T11:36:22.061Z,9.27
2023-02-15T11:38:56.382Z,9.90
2023-02-15T11:41:29.130Z,9.53
2023-02-15T11:44:01.902Z,9.07
2023-02-15T11:46:29.855Z,10.50
2023-02-15T11:48:59.269Z,8.97
2023-02-15T11:51:29.771Z,9.00
2023-02-15T11:53:58.483Z,13.87
2023-02-15T11:56:28.061Z,9.50
2023-02-15T11:59:00.480Z,10.60
2023-02-15T12:01:33.895Z,10.73
2023-02-15T12:04:06.837Z,9.60
2023-02-15T12:06:39.538Z,10.10
2023-02-15T12:09:15.300Z,9.53
2023-02-15T12:11:44.375Z,11.20
2023-02-15T12:14:16.660Z,10.20
2023-02-15T12:16:47.069Z,8.63
2023-02-15T12:19:31.873Z,9.50
2023-02-15T12:22:01.152Z,15.70
2023-02-15T12:24:31.917Z,10.10
2023-02-15T12:27:03.652Z,9.20
2023-02-15T12:29:36.654Z,9.70
2023-02-15T12:32:05.871Z,9.70
2023-02-15T12:34:42.194Z,10.20
2023-02-15T12:37:19.098Z,9.57
2023-02-15T12:39:54.852Z,10.17
2023-02-15T12:42:24.799Z,10.50
2023-02-15T12:44:59.287Z,9.87
2023-02-15T12:47:29.563Z,10.97
2023-02-15T12:50:17.816Z,10.83
2023-02-15T12:52:48.515Z,11.40
2023-02-15T12:55:26.422Z,10.27
2023-02-15T12:58:10.268Z,13.80
2023-02-15T13:00:38.183Z,12.33
2023-02-15T13:03:06.377Z,11.13
2023-02-15T13:05:38.739Z,15.80
2023-02-15T13:08:14.380Z,12.03
2023-02-15T13:10:44.998Z,12.50
2023-02-15T13:13:22.711Z,13.17
2023-02-15T13:15:53.527Z,13.53
2023-02-15T13:18:30.474Z,13.53
2023-02-15T13:20:58.783Z,11.53
2023-02-15T13:23:29.821Z,12.87
2023-02-15T13:26:00.126Z,11.20
2023-02-15T13:28:39.407Z,11.77
2023-02-15T13:31:14.826Z,12.80
2023-02-15T13:33:46.413Z,9.70
2023-02-15T13:36:21.294Z,10.70
2023-02-15T13:38:57.482Z,9.93
2023-02-15T13:41:34.159Z,11.07
2023-02-15T13:44:27.753Z,11.13
2023-02-15T13:47:05.393Z,10.47
2023-02-15T13:49:47.158Z,11.00
2023-02-15T13:52:22.338Z,12.83
2023-02-15T13:55:08.629Z,11.27
2023-02-15T13:57:55.624Z,12.80
2023-02-15T14:00:29.973Z,12.97
2023-02-15T14:03:23.038Z,12.67
2023-02-15T14:06:15.579Z,13.10
2023-02-15T14:08:56.858Z,11.30
2023-02-15T14:11:35.440Z,10.20
2023-02-15T14:14:20.045Z,14.30
2023-02-15T14:17:06.100Z,10.60
2023-02-15T14:19:42.222Z,10.63
2023-02-15T14:22:17.562Z,9.70
2023-02-15T14:24:50.076Z,13.20
2023-02-15T14:27:27.577Z,11.53
2023-02-15T14:29:58.768Z,9.50
2023-02-15T14:32:36.352Z,14.80
2023-02-15T14:35:05.836Z,13.17
2023-02-15T14:37:42.786Z,12.60
2023-02-15T14:40:37.150Z,12.00
2023-02-15T14:43:13.760Z,10.70
2023-02-15T14:45:50.557Z,17.10
2023-02-15T14:48:26.169Z,10.97
2023-02-15T14:50:53.928Z,12.50
2023-02-15T14:53:48.439Z,10.03
2023-02-15T14:56:26.841Z,12.10
2023-02-15T14:59:15.213Z,10.93
2023-02-15T15:01:44.293Z,13.30
2023-02-15T15:04:23.520Z,15.10
2023-02-15T15:07:02.100Z,15.13
2023-02-15T15:09:31.705Z,10.33
2023-02-15T15:12:16.913Z,11.47
2023-02-15T15:14:46.733Z,12.77
2023-02-15T15:17:42.506Z,12.97
2023-02-15T15:20:17.623Z,12.77
2023-02-15T15:22:45.618Z,12.63
2023-02-15T15:25:29.711Z,11.53
2023-02-15T15:27:57.543Z,12.30
2023-02-15T15:31:02.002Z,12.90
2023-02-15T15:34:12.039Z,12.10
2023-02-15T15:37:29.612Z,13.53
2023-02-15T15:40:42.593Z,14.93
2023-02-15T15:43:41.629Z,14.07
2023-02-15T15:46:18.780Z,14.27
2023-02-15T15:48:46.666Z,15.40
2023-02-15T15:51:20.319Z,12.60
2023-02-15T15:53:54.106Z,13.30
2023-02-15T15:56:26.103Z,11.17
2023-02-15T15:58:58.101Z,15.27
2023-02-15T16:01:30.622Z,15.43
2023-02-15T16:04:00.215Z,15.17
2023-02-15T16:06:33.357Z,14.67
2023-02-15T16:09:14.059Z,14.43
2023-02-15T16:11:42.516Z,16.17
2023-02-15T16:14:16.025Z,14.00
2023-02-15T16:16:53.731Z,14.73
2023-02-15T16:19:25.824Z,14.63
2023-02-15T16:21:54.111Z,13.70
2023-02-15T16:24:35.875Z,14.00
2023-02-15T16:27:31.846Z,16.37
2023-02-15T16:29:59.647Z,13.80
2023-02-15T16:32:29.299Z,12.57
2023-02-15T16:34:58.816Z,16.93
2023-02-15T16:37:28.378Z,16.30
2023-02-15T16:39:57.792Z,14.60
2023-02-15T16:42:26.401Z,15.00
2023-02-15T16:44:57.506Z,15.47
2023-02-15T16:47:28.192Z,16.73
2023-02-15T16:49:59.710Z,18.70
2023-02-15T16:52:28.742Z,19.63
2023-02-15T16:55:00.986Z,14.80
2023-02-15T16:57:33.822Z,13.10
2023-02-15T17:00:05.909Z,21.03
2023-02-15T17:02:55.194Z,14.40
2023-02-15T17:05:23.731Z,16.93
2023-02-15T17:08:06.780Z,13.47
2023-02-15T17:10:39.793Z,12.57
2023-02-15T17:13:13.255Z,13.20
2023-02-15T17:15:42.696Z,16.77
2023-02-15T17:18:16.624Z,15.80
2023-02-15T17:20:45.932Z,14.57
2023-02-15T17:23:27.421Z,15.20
2023-02-15T17:25:57.832Z,14.80
2023-02-15T17:28:28.243Z,13.20
2023-02-15T17:30:57.628Z,13.63
2023-02-15T17:33:30.019Z,13.30
2023-02-15T17:36:07.064Z,13.93
2023-02-15T17:38:35.276Z,13.70
2023-02-15T17:41:04.746Z,13.37
2023-02-15T17:43:32.630Z,15.37
2023-02-15T17:46:00.663Z,15.80
2023-02-15T17:48:32.877Z,12.33
2023-02-15T17:51:02.554Z,14.07
2023-02-15T17:53:31.023Z,14.17
2023-02-15T17:55:57.837Z,14.63
2023-02-15T17:58:26.983Z,13.63
2023-02-15T18:01:15.744Z,12.80
2023-02-15T18:04:04.235Z,12.77
2023-02-15T18:06:50.003Z,14.00
2023-02-15T18:09:37.658Z,22.77
2023-02-15T18:12:16.272Z,16.63
2023-02-15T18:14:45.332Z,13.40
2023-02-15T18:17:14.793Z,13.60
2023-02-15T18:19:43.508Z,16.93
2023-02-15T18:22:12.613Z,14.70
2023-02-15T18:24:40.893Z,18.13
2023-02-15T18:27:08.665Z,16.40
2023-02-15T18:29:36.487Z,13.47
2023-02-15T18:32:09.631Z,18.37
2023-02-15T18:34:40.634Z,17.63
2023-02-15T18:37:14.188Z,16.10
2023-02-15T18:39:45.716Z,14.43
2023-02-15T18:42:21.380Z,14.70
2023-02-15T18:44:49.153Z,18.83
2023-02-15T18:47:18.156Z,16.40
2023-02-15T18:49:45.905Z,15.90
2023-02-15T18:52:16.955Z,13.63
2023-02-15T18:54:45.318Z,13.30
2023-02-15T18:57:15.565Z,17.63
2023-02-15T18:59:43.637Z,15.27
2023-02-15T19:02:14.772Z,17.40
2023-02-15T19:04:44.672Z,14.43
2023-02-15T19:07:18.428Z,15.20
2023-02-15T19:09:48.848Z,14.30
2023-02-15T19:12:16.664Z,14.77
2023-02-15T19:14:44.364Z,19.27
2023-02-15T19:17:18.390Z,15.80
2023-02-15T19:19:48.136Z,21.53
2023-02-15T19:22:16.875Z,20.67
2023-02-15T19:24:46.511Z,14.57
2023-02-15T19:27:22.213Z,16.93
2023-02-15T19:29:50.951Z,15.07
2023-02-15T19:32:18.965Z,16.10
2023-02-15T19:34:48.041Z,15.43
2023-02-15T19:37:25.085Z,17.33
2023-02-15T19:39:53.482Z,15.10
2023-02-15T19:42:24.365Z,16.00
2023-02-15T19:44:52.381Z,17.87
2023-02-15T19:47:20.490Z,20.23
2023-02-15T19:49:49.736Z,19.50
2023-02-15T19:52:19.422Z,20.83
2023-02-15T19:54:48.908Z,20.40
2023-02-15T19:57:17.136Z,21.37
2023-02-15T19:59:44.826Z,21.53
2023-02-15T20:02:18.542Z,19.83
2023-02-15T20:04:46.628Z,21.00
2023-02-15T20:07:23.538Z,19.23
2023-02-15T20:09:51.387Z,23.83
2023-02-15T20:12:24.688Z,23.93
2023-02-15T20:14:52.689Z,19.43
2023-02-15T20:17:20.669Z,24.70
2023-02-15T20:19:48.417Z,26.07
2023-02-15T20:22:24.033Z,23.80
2023-02-15T20:24:55.340Z,23.30
2023-02-15T20:27:23.509Z,26.97
2023-02-15T20:29:51.453Z,26.83
2023-02-15T20:32:19.280Z,25.60
2023-02-15T20:34:47.223Z,25.17
2023-02-15T20:37:23.166Z,28.63
2023-02-15T20:39:51.854Z,24.80
2023-02-15T20:42:20.390Z,24.40
2023-02-15T20:44:48.108Z,24.53
2023-02-15T20:47:15.864Z,22.73
2023-02-15T20:49:43.549Z,24.30
2023-02-15T20:52:19.285Z,28.88
2023-02-15T20:54:48.641Z,29.20
2023-02-15T20:57:16.809Z,25.90
2023-02-15T20:59:44.549Z,25.90
2023-02-15T21:02:17.675Z,26.60
2023-02-15T21:04:45.401Z,21.10
2023-02-15T21:07:15.852Z,25.07
2023-02-15T21:09:43.856Z,23.90
2023-02-15T21:12:14.861Z,25.63
2023-02-15T21:14:43.078Z,22.80
2023-02-15T21:17:12.786Z,21.40
2023-02-15T21:19:41.415Z,21.00
2023-02-15T21:22:12.805Z,24.50
2023-02-15T21:24:41.451Z,23.43
2023-02-15T21:27:15.287Z,25.20
2023-02-15T21:29:43.011Z,28.00
2023-02-15T21:32:11.306Z,22.60
2023-02-15T21:34:39.833Z,23.30
2023-02-15T21:37:25.626Z,22.43
2023-02-15T21:39:53.504Z,24.07
2023-02-15T21:42:54.572Z,22.87
2023-02-15T21:45:39.904Z,24.30
2023-02-15T21:48:07.641Z,26.67
2023-02-15T21:50:54.189Z,21.47
2023-02-15T21:53:25.053Z,21.57
2023-02-15T21:55:55.603Z,18.60
2023-02-15T21:58:26.913Z,19.73
2023-02-15T22:00:55.852Z,23.37
2023-02-15T22:03:24.580Z,17.50
2023-02-15T22:05:52.799Z,17.17
2023-02-15T22:08:27.262Z,18.10
2023-02-15T22:10:56.351Z,18.30
2023-02-15T22:13:29.109Z,22.23
2023-02-15T22:15:57.017Z,17.30
2023-02-15T22:18:26.976Z,19.43
2023-02-15T22:20:55.781Z,17.33
2023-02-15T22:23:24.425Z,18.07
2023-02-15T22:25:57.725Z,19.57
2023-02-15T22:28:33.592Z,18.23
2023-02-15T22:31:02.450Z,17.67
2023-02-15T22:33:31.941Z,16.20
2023-02-15T22:36:00.010Z,18.83
2023-02-15T22:38:27.851Z,21.27
2023-02-15T22:40:58.399Z,17.13
2023-02-15T22:43:38.046Z,18.87
2023-02-15T22:46:08.558Z,22.00
2023-02-15T22:48:36.710Z,17.33
2023-02-15T22:51:04.983Z,17.33
2023-02-15T22:53:33.263Z,17.30
2023-02-15T22:56:07.154Z,18.47
2023-02-15T22:58:36.415Z,22.88
2023-02-15T23:01:05.317Z,24.53
2023-02-15T23:03:34.144Z,18.73
2023-02-15T23:06:01.924Z,19.90
2023-02-15T23:08:29.731Z,20.87
2023-02-15T23:10:58.276Z,22.53
2023-02-15T23:13:30.159Z,20.47
2023-02-15T23:16:01.484Z,23.83
2023-02-15T23:18:32.822Z,24.10
2023-02-15T23:21:02.914Z,23.50
2023-02-15T23:23:33.495Z,22.43
2023-02-15T23:26:04.211Z,24.27
2023-02-15T23:28:36.654Z,24.60
2023-02-15T23:31:16.410Z,24.53
2023-02-15T23:33:44.694Z,23.70
2023-02-15T23:36:26.196Z,26.57
2023-02-15T23:38:54.283Z,27.13
2023-02-15T23:41:25.483Z,23.43
2023-02-15T23:43:56.293Z,24.67
2023-02-15T23:46:28.696Z,22.40
2023-02-15T23:48:57.328Z,21.73
2023-02-15T23:51:32.556Z,23.37
2023-02-15T23:54:00.300Z,23.20
2023-02-15T23:56:29.270Z,26.67
2023-02-15T23:58:57.024Z,21.40
